Time;durP1;ratioP1;P1;durP2;ratioP2;P2;SDS_P1;SDS_P2;PMS_P1;PMS_P2;Temp;Humidity;BMP_temperature;BMP_pressure;BME280_temperature;BME280_humidity;BME280_pressure;Samples;Min_cycle;Max_cycle;Signal;HPM_P1;HPM_P2
2022/04/03 00:00:00;;;;;;;10.23;9.33;;;;;;;0.48;87.68;96531.03;5042627;28;20207;-58
2022/04/03 00:02:28;;;;;;;10.07;9.17;;;;;;;0.47;88.50;96534.56;5042101;28;20207;-58
2022/04/03 00:04:54;;;;;;;9.43;8.53;;;;;;;0.51;89.30;96528.28;5042119;28;20228;-58
2022/04/03 00:07:22;;;;;;;10.10;9.10;;;;;;;0.60;90.63;96532.13;5042412;28;20202;-58
2022/04/03 00:09:49;;;;;;;9.30;8.50;;;;;;;0.57;91.24;96534.91;5041002;28;20214;-58
2022/04/03 00:12:15;;;;;;;10.27;9.27;;;;;;;0.58;90.54;96534.81;5042458;28;20212;-58
2022/04/03 00:14:43;;;;;;;10.33;9.20;;;;;;;0.51;89.36;96533.47;5041787;28;20767;-59
2022/04/03 00:17:09;;;;;;;10.30;9.30;;;;;;;0.45;88.87;96528.63;5041926;28;20218;-57
2022/04/03 00:19:36;;;;;;;10.27;9.37;;;;;;;0.50;88.27;96537.00;5042098;28;20213;-58
2022/04/03 00:22:03;;;;;;;10.17;9.07;;;;;;;0.51;88.91;96541.28;5042622;28;20211;-58
2022/04/03 00:24:30;;;;;;;9.83;8.80;;;;;;;0.44;88.15;96537.34;5042355;28;20227;-58
2022/04/03 00:26:56;;;;;;;10.40;9.37;;;;;;;0.49;88.97;96540.53;5041303;28;20305;-58
2022/04/03 00:29:24;;;;;;;9.70;8.87;;;;;;;0.42;87.74;96537.44;5042201;28;20534;-58
2022/04/03 00:31:52;;;;;;;10.63;9.73;;;;;;;0.50;88.54;96534.38;5042099;28;20240;-59
2022/04/03 00:34:18;;;;;;;10.60;9.60;;;;;;;0.52;88.64;96540.38;5042670;28;20222;-58
2022/04/03 00:36:45;;;;;;;11.07;10.07;;;;;;;0.57;88.79;96535.72;5041803;28;20205;-59
2022/04/03 00:39:11;;;;;;;10.00;9.10;;;;;;;0.66;91.46;96535.22;5043128;28;20196;-59
2022/04/03 00:41:39;;;;;;;10.80;9.90;;;;;;;0.65;90.03;96536.16;5043164;28;20219;-59
2022/04/03 00:44:05;;;;;;;10.63;9.57;;;;;;;0.60;89.42;96538.19;5042165;28;20231;-58
2022/04/03 00:46:36;;;;;;;10.80;9.73;;;;;;;0.57;90.40;96538.31;5042806;28;20267;-57
2022/04/03 00:49:04;;;;;;;9.63;8.63;;;;;;;0.58;90.55;96542.63;5042818;28;20218;-58
2022/04/03 00:51:30;;;;;;;10.80;9.90;;;;;;;0.57;89.57;96538.31;5042050;28;20223;-58
2022/04/03 00:53:57;;;;;;;11.13;10.13;;;;;;;0.62;88.99;96551.94;5041982;28;20594;-58
2022/04/03 00:56:23;;;;;;;10.73;9.60;;;;;;;0.59;88.62;96546.06;5042126;28;20625;-58
2022/04/03 00:58:50;;;;;;;10.43;9.53;;;;;;;0.56;88.61;96547.09;5055146;28;20294;-59
2022/04/03 01:01:17;;;;;;;11.17;9.77;;;;;;;0.69;89.89;96542.88;5059757;28;20261;-58
2022/04/03 01:03:44;;;;;;;11.00;9.90;;;;;;;0.75;91.38;96544.28;5064596;28;20265;-59
2022/04/03 01:06:11;;;;;;;11.37;10.27;;;;;;;0.68;89.97;96546.38;5065542;28;20204;-58
2022/04/03 01:08:38;;;;;;;11.90;10.80;;;;;;;0.69;90.03;96545.47;5060610;28;20205;-58
2022/04/03 01:11:04;;;;;;;10.67;9.77;;;;;;;0.74;90.77;96545.22;5042125;28;20200;-59
2022/04/03 01:13:31;;;;;;;11.63;10.43;;;;;;;0.80;91.46;96550.06;5041943;28;20196;-59
2022/04/03 01:15:59;;;;;;;11.10;10.07;;;;;;;0.85;90.72;96548.06;5041888;28;20210;-58
2022/04/03 01:18:26;;;;;;;11.50;10.37;;;;;;;0.86;90.37;96553.16;5046201;28;20195;-58
2022/04/03 01:20:52;;;;;;;11.20;10.20;;;;;;;0.91;91.71;96548.56;5046752;28;20529;-58
2022/04/03 01:23:21;;;;;;;12.23;11.03;;;;;;;0.88;90.27;96546.13;5046505;28;20230;-59
2022/04/03 01:25:49;;;;;;;11.17;10.07;;;;;;;0.82;88.88;96543.84;5046229;28;20244;-59
2022/04/03 01:28:15;;;;;;;11.33;10.23;;;;;;;0.82;89.53;96551.66;5045851;28;20217;-59
2022/04/03 01:30:42;;;;;;;11.70;10.70;;;;;;;0.85;91.27;96550.66;5046138;28;20207;-59
2022/04/03 01:33:10;;;;;;;12.13;10.93;;;;;;;0.91;92.38;96551.16;5044868;28;20217;-58
2022/04/03 01:35:36;;;;;;;12.50;11.20;;;;;;;0.88;90.77;96550.50;5045122;28;20203;-58
2022/04/03 01:38:02;;;;;;;12.70;11.50;;;;;;;0.98;91.26;96551.63;5045930;28;20203;-59
2022/04/03 01:40:29;;;;;;;12.27;10.97;;;;;;;0.99;90.69;96548.13;5045032;28;20218;-58
2022/04/03 01:42:57;;;;;;;12.10;10.93;;;;;;;1.03;91.27;96548.78;5044809;28;20203;-58
2022/04/03 01:45:23;;;;;;;12.50;11.30;;;;;;;1.00;91.11;96552.38;5044240;28;20239;-58
2022/04/03 01:47:50;;;;;;;12.10;11.00;;;;;;;0.97;90.47;96545.59;5044904;28;20532;-59
2022/04/03 01:50:16;;;;;;;12.57;11.37;;;;;;;0.96;91.35;96554.31;5045942;28;20220;-59
2022/04/03 01:52:43;;;;;;;12.67;11.57;;;;;;;0.96;91.08;96553.47;5045341;28;20533;-59
2022/04/03 01:55:10;;;;;;;12.07;11.07;;;;;;;0.96;92.58;96551.72;5044703;28;20582;-58
2022/04/03 01:57:37;;;;;;;12.40;11.27;;;;;;;0.91;89.80;96556.34;5045306;28;20210;-59
2022/04/03 02:00:07;;;;;;;12.50;11.40;;;;;;;0.94;90.98;96550.97;5045240;28;20201;-58
2022/04/03 02:02:36;;;;;;;12.13;11.03;;;;;;;0.95;90.42;96542.25;5045333;28;20185;-59
2022/04/03 02:05:03;;;;;;;11.90;10.80;;;;;;;0.94;91.38;96545.75;5045513;28;20241;-58
2022/04/03 02:07:30;;;;;;;13.33;12.03;;;;;;;0.91;91.17;96550.31;5048348;28;20294;-57
2022/04/03 02:09:57;;;;;;;13.27;11.97;;;;;;;0.94;90.27;96550.97;5067687;28;20203;-59
2022/04/03 02:12:24;;;;;;;13.20;12.00;;;;;;;0.92;89.58;96552.81;5067217;28;20184;-57
2022/04/03 02:14:50;;;;;;;12.50;11.33;;;;;;;0.89;90.72;96549.53;5067888;28;20185;-57
2022/04/03 02:17:18;;;;;;;13.20;12.00;;;;;;;0.88;90.42;96556.53;5065015;28;20235;-58
2022/04/03 02:19:45;;;;;;;13.13;11.87;;;;;;;0.92;92.60;96558.00;5049805;28;20303;-58
2022/04/03 02:22:11;;;;;;;13.30;12.10;;;;;;;0.76;88.18;96557.22;5045555;28;20200;-58
2022/04/03 02:24:38;;;;;;;13.33;12.03;;;;;;;0.85;89.73;96556.69;5045039;28;20247;-58
2022/04/03 02:27:05;;;;;;;13.93;12.67;;;;;;;0.84;89.28;96559.38;5045419;28;20228;-58
2022/04/03 02:29:31;;;;;;;13.63;12.33;;;;;;;0.88;90.52;96563.50;5045646;28;20218;-58
2022/04/03 02:31:59;;;;;;;14.30;12.80;;;;;;;0.77;89.50;96568.47;5044715;28;20224;-57
2022/04/03 02:34:27;;;;;;;13.20;11.90;;;;;;;0.92;90.23;96560.63;5046131;28;20214;-58
2022/04/03 02:36:54;;;;;;;12.60;11.40;;;;;;;0.96;90.88;96563.88;5045538;28;21511;-58
2022/04/03 02:39:20;;;;;;;13.83;12.50;;;;;;;0.87;90.57;96562.66;5045597;28;20224;-58
2022/04/03 02:41:47;;;;;;;13.37;12.17;;;;;;;0.92;90.27;96563.22;5044745;28;20198;-59
2022/04/03 02:44:15;;;;;;;13.47;12.17;;;;;;;0.93;91.08;96567.50;5047088;28;20204;-58
2022/04/03 02:46:41;;;;;;;13.33;12.07;;;;;;;0.96;92.85;96569.09;5047140;28;20209;-58
2022/04/03 02:49:09;;;;;;;13.83;12.50;;;;;;;0.96;92.46;96569.94;5053201;28;20197;-58
2022/04/03 02:51:37;;;;;;;13.30;12.00;;;;;;;0.89;91.39;96568.59;5044591;28;20639;-58
2022/04/03 02:54:03;;;;;;;14.77;13.37;;;;;;;0.87;92.93;96567.88;5045029;28;20206;-58
2022/04/03 02:56:30;;;;;;;15.60;13.37;;;;;;;0.91;92.74;96571.97;5044594;28;20624;-58
2022/04/03 02:58:56;;;;;;;14.03;12.63;;;;;;;0.97;93.21;96566.41;5043382;28;20628;-59
2022/04/03 03:01:23;;;;;;;14.87;13.37;;;;;;;1.07;91.35;96565.88;5043568;28;20204;-58
2022/04/03 03:03:50;;;;;;;14.67;13.27;;;;;;;0.93;91.76;96564.91;5044570;28;20292;-57
2022/04/03 03:06:17;;;;;;;14.83;13.37;;;;;;;0.92;90.69;96571.03;5043637;28;20715;-58
2022/04/03 03:08:45;;;;;;;14.17;12.87;;;;;;;0.92;91.72;96565.00;5043783;28;20209;-59
2022/04/03 03:11:11;;;;;;;14.67;13.20;;;;;;;0.96;92.06;96569.94;5044112;28;20215;-58
2022/04/03 03:13:38;;;;;;;14.53;13.17;;;;;;;0.92;92.03;96571.03;5044465;28;20242;-57
2022/04/03 03:16:06;;;;;;;15.00;13.60;;;;;;;0.94;91.11;96563.16;5044169;28;20196;-58
2022/04/03 03:18:32;;;;;;;14.83;13.53;;;;;;;0.96;92.29;96569.94;5044116;28;20206;-58
2022/04/03 03:20:58;;;;;;;15.13;13.73;;;;;;;0.76;90.20;96565.03;5055246;28;20207;-58
2022/04/03 03:23:25;;;;;;;15.40;13.90;;;;;;;0.89;91.68;96568.59;5057152;28;20235;-59
2022/04/03 03:25:53;;;;;;;14.83;13.10;;;;;;;0.88;90.83;96564.34;5057160;28;20313;-57
2022/04/03 03:28:19;;;;;;;15.17;13.67;;;;;;;0.85;90.13;96561.88;5056287;28;20270;-59
2022/04/03 03:30:46;;;;;;;15.83;14.17;;;;;;;0.88;91.17;96561.75;5052565;28;20207;-58
2022/04/03 03:33:12;;;;;;;15.33;13.93;;;;;;;0.92;90.72;96563.22;5051172;28;20199;-57
2022/04/03 03:35:39;;;;;;;15.27;13.87;;;;;;;0.95;91.89;96563.06;5051541;28;20203;-57
2022/04/03 03:38:05;;;;;;;15.40;13.87;;;;;;;0.87;91.34;96570.47;5047094;28;20632;-58
2022/04/03 03:40:32;;;;;;;16.10;14.57;;;;;;;0.97;91.89;96563.81;5051355;28;20234;-58
2022/04/03 03:43:02;;;;;;;15.67;14.03;;;;;;;0.96;91.73;96563.88;5043250;28;20205;-58
2022/04/03 03:45:28;;;;;;;15.67;14.17;;;;;;;0.98;91.99;96562.91;5043727;28;20231;-59
2022/04/03 03:47:57;;;;;;;16.40;14.80;;;;;;;0.83;91.02;96565.50;5042593;28;20806;-57
2022/04/03 03:50:24;;;;;;;15.70;14.20;;;;;;;0.84;90.91;96557.63;5042956;28;20214;-57
2022/04/03 03:52:51;;;;;;;14.80;13.40;;;;;;;0.92;91.81;96571.03;5043617;28;20259;-59
2022/04/03 03:55:18;;;;;;;15.53;13.90;;;;;;;0.94;92.79;96564.00;5043112;28;20244;-58
2022/04/03 03:57:45;;;;;;;16.50;14.90;;;;;;;0.96;92.48;96569.09;5042519;28;20211;-59
2022/04/03 04:00:14;;;;;;;16.47;14.77;;;;;;;1.04;93.59;96571.25;5043294;28;20237;-58
2022/04/03 04:02:41;;;;;;;15.53;14.03;;;;;;;1.04;91.61;96566.06;5042946;28;20251;-58
2022/04/03 04:05:09;;;;;;;17.27;15.43;;;;;;;1.11;92.08;96570.00;5043286;28;20224;-57
2022/04/03 04:07:40;;;;;;;17.27;15.43;;;;;;;1.06;90.93;96574.63;5042476;28;20564;-58
2022/04/03 04:10:08;;;;;;;15.70;14.20;;;;;;;1.05;92.17;96572.94;5043149;28;20209;-58
2022/04/03 04:12:35;;;;;;;16.50;14.80;;;;;;;0.96;91.50;96569.94;5042432;28;20219;-59
2022/04/03 04:15:01;;;;;;;15.70;14.20;;;;;;;1.03;93.46;96573.03;5042580;28;20239;-58
2022/04/03 04:17:34;;;;;;;17.17;15.37;;;;;;;1.04;91.09;96579.06;5042361;28;20196;-58
2022/04/03 04:20:03;;;;;;;17.27;15.07;;;;;;;1.08;92.33;96576.22;5042186;28;20202;-58
2022/04/03 04:22:29;;;;;;;16.33;14.73;;;;;;;0.88;90.97;96573.91;5042049;28;20215;-58
2022/04/03 04:24:55;;;;;;;16.30;14.70;;;;;;;0.82;90.28;96582.88;5043631;28;20645;-58
2022/04/03 04:27:22;;;;;;;16.27;14.57;;;;;;;0.85;91.75;96581.91;5050243;28;20240;-58
2022/04/03 04:29:49;;;;;;;15.33;13.93;;;;;;;0.92;91.88;96578.03;5058701;28;20213;-58
2022/04/03 04:32:15;;;;;;;15.67;14.07;;;;;;;1.04;91.31;96576.47;5042721;28;20202;-58
2022/04/03 04:34:43;;;;;;;16.73;14.87;;;;;;;0.94;90.66;96587.41;5042169;28;20215;-58
2022/04/03 04:37:09;;;;;;;17.47;15.27;;;;;;;0.84;92.19;96581.06;5043341;28;20201;-58
2022/04/03 04:39:36;;;;;;;16.43;14.83;;;;;;;0.95;92.26;96589.09;5042215;28;20271;-58
2022/04/03 04:42:02;;;;;;;16.43;14.83;;;;;;;0.97;91.79;96586.41;5042157;28;20230;-57
2022/04/03 04:44:29;;;;;;;16.93;15.30;;;;;;;0.99;91.87;96595.78;5041552;28;20204;-59
2022/04/03 04:46:55;;;;;;;17.47;15.77;;;;;;;1.02;92.33;96594.81;5042596;28;20238;-58
2022/04/03 04:49:22;;;;;;;17.47;15.77;;;;;;;1.04;92.16;96594.69;5041630;28;20217;-58
2022/04/03 04:51:49;;;;;;;18.13;16.33;;;;;;;0.95;91.80;96602.13;5041970;28;20642;-58
2022/04/03 04:54:16;;;;;;;17.23;15.53;;;;;;;1.03;93.57;96608.66;5041583;28;20202;-58
2022/04/03 04:56:42;;;;;;;17.43;15.73;;;;;;;1.07;91.57;96611.00;5041047;28;20661;-57
2022/04/03 04:59:09;;;;;;;16.33;14.70;;;;;;;1.13;92.81;96602.84;5041587;28;20221;-59
2022/04/03 05:01:35;;;;;;;17.53;15.83;;;;;;;1.12;93.21;96605.53;5041756;28;20201;-58
2022/04/03 05:04:02;;;;;;;17.60;15.90;;;;;;;1.16;92.62;96609.66;5041366;28;20224;-57
2022/04/03 05:06:28;;;;;;;17.53;15.73;;;;;;;1.17;93.00;96613.94;5040777;28;20672;-57
2022/04/03 05:08:58;;;;;;;17.03;15.30;;;;;;;1.24;92.88;96615.28;5041531;28;20205;-58
2022/04/03 05:11:24;;;;;;;17.40;15.67;;;;;;;1.21;92.98;96612.81;5042167;28;20214;-57
2022/04/03 05:13:52;;;;;;;18.93;16.93;;;;;;;1.17;90.89;96608.72;5040805;28;20213;-58
2022/04/03 05:16:19;;;;;;;19.27;17.00;;;;;;;1.26;93.39;96614.25;5041680;28;20201;-58
2022/04/03 05:18:46;;;;;;;18.47;16.70;;;;;;;1.23;92.74;96616.19;5041372;28;20249;-59
2022/04/03 05:21:12;;;;;;;18.03;16.33;;;;;;;1.18;91.72;96615.59;5041286;28;20211;-59
2022/04/03 05:23:39;;;;;;;18.00;16.20;;;;;;;1.22;91.01;96617.94;5042567;28;20212;-57
2022/04/03 05:26:07;;;;;;;18.33;16.53;;;;;;;1.21;92.55;96624.06;5041487;28;20229;-57
2022/04/03 05:28:35;;;;;;;17.50;15.80;;;;;;;1.28;91.16;96621.94;5041686;28;20217;-58
2022/04/03 05:31:02;;;;;;;18.47;16.77;;;;;;;1.20;90.85;96617.22;5041453;28;20220;-58
2022/04/03 05:33:28;;;;;;;17.97;16.27;;;;;;;1.06;90.52;96626.72;5042133;28;20513;-58
2022/04/03 05:35:55;;;;;;;17.83;16.03;;;;;;;1.18;93.62;96633.81;5042204;28;20663;-59
2022/04/03 05:38:23;;;;;;;17.97;16.27;;;;;;;1.18;91.62;96631.22;5041858;28;20214;-58
2022/04/03 05:40:49;;;;;;;18.40;16.60;;;;;;;1.23;91.95;96631.81;5043005;28;20231;-57
2022/04/03 05:43:17;;;;;;;18.17;16.47;;;;;;;1.20;90.26;96632.84;5042015;28;20208;-58
2022/04/03 05:45:43;;;;;;;17.63;15.93;;;;;;;1.21;90.70;96631.03;5043056;28;20236;-58
2022/04/03 05:48:10;;;;;;;17.97;16.27;;;;;;;1.26;90.47;96640.28;5057013;28;20186;-57
2022/04/03 05:50:37;;;;;;;18.40;16.57;;;;;;;1.33;91.92;96636.41;5064722;28;20198;-58
2022/04/03 05:53:04;;;;;;;19.00;17.10;;;;;;;1.32;90.30;96639.09;5064357;28;20211;-58
2022/04/03 05:55:31;;;;;;;19.33;17.53;;;;;;;1.33;89.10;96641.63;5060664;28;20212;-58
2022/04/03 05:57:58;;;;;;;17.73;16.03;;;;;;;1.27;88.61;96646.34;5052453;28;20221;-57
2022/04/03 06:00:26;;;;;;;19.07;17.23;;;;;;;1.28;89.62;96648.84;5059509;28;20228;-58
2022/04/03 06:02:54;;;;;;;17.67;15.97;;;;;;;1.32;89.54;96646.91;5047806;28;20205;-56
2022/04/03 06:05:24;;;;;;;19.23;17.10;;;;;;;1.24;87.70;96649.13;5053634;28;20629;-58
2022/04/03 06:07:51;;;;;;;18.03;16.23;;;;;;;1.22;88.99;96657.00;5059428;28;20210;-58
2022/04/03 06:10:19;;;;;;;18.97;17.07;;;;;;;1.22;88.44;96664.84;5052210;28;20202;-58
2022/04/03 06:12:58;;;;;;;18.80;17.00;;;;;;;1.22;88.48;96659.63;5054518;28;20245;-58
2022/04/03 06:15:28;;;;;;;18.13;16.37;;;;;;;1.31;88.79;96661.69;5054002;28;20643;-59
2022/04/03 06:17:54;;;;;;;16.97;15.37;;;;;;;1.38;89.75;96659.59;5058322;28;20213;-58
2022/04/03 06:20:22;;;;;;;18.33;16.50;;;;;;;1.43;88.69;96658.41;5058434;28;20208;-58
2022/04/03 06:22:48;;;;;;;17.43;15.83;;;;;;;1.47;87.99;96664.28;5048622;28;20238;-58
2022/04/03 06:25:15;;;;;;;17.43;15.80;;;;;;;1.55;86.59;96659.47;5048988;28;20217;-59
2022/04/03 06:27:42;;;;;;;16.57;15.10;;;;;;;1.83;87.56;96667.38;5049929;28;20223;-58
2022/04/03 06:30:09;;;;;;;17.27;15.47;;;;;;;1.94;84.39;96670.22;5049114;28;20201;-57
2022/04/03 06:32:37;;;;;;;15.80;14.37;;;;;;;1.83;82.38;96664.78;5050597;28;20211;-58
2022/04/03 06:35:04;;;;;;;16.83;15.23;;;;;;;1.93;82.81;96667.69;5048389;28;20209;-58
2022/04/03 06:37:31;;;;;;;16.00;14.50;;;;;;;2.00;82.86;96675.06;5046680;28;20207;-58
2022/04/03 06:39:58;;;;;;;16.33;14.70;;;;;;;2.07;83.45;96665.09;5045087;28;20203;-58
2022/04/03 06:42:24;;;;;;;16.93;15.33;;;;;;;2.13;83.78;96669.94;5044474;28;20219;-58
2022/04/03 06:44:51;;;;;;;14.83;13.33;;;;;;;2.13;84.36;96671.69;5043739;28;20533;-56
2022/04/03 06:47:18;;;;;;;17.00;15.30;;;;;;;2.28;84.06;96671.66;5045518;28;20229;-55
2022/04/03 06:49:45;;;;;;;16.10;14.50;;;;;;;2.26;83.07;96672.69;5044775;28;20205;-57
2022/04/03 06:52:15;;;;;;;15.67;14.27;;;;;;;2.42;80.86;96676.03;5044662;28;20221;-56
2022/04/03 06:54:42;;;;;;;15.60;14.20;;;;;;;2.78;82.05;96673.78;5044308;28;20209;-57
2022/04/03 06:57:09;;;;;;;15.53;14.13;;;;;;;3.02;79.73;96679.25;5044348;28;20230;-54
2022/04/03 06:59:36;;;;;;;14.90;13.50;;;;;;;3.03;78.71;96680.94;5043653;28;20660;-54
2022/04/03 07:02:03;;;;;;;14.97;13.67;;;;;;;2.80;77.79;96684.97;5051793;28;20189;-54
2022/04/03 07:04:30;;;;;;;14.23;13.03;;;;;;;2.79;76.81;96680.69;5047207;28;20245;-55
2022/04/03 07:06:58;;;;;;;14.43;13.13;;;;;;;2.82;76.29;96690.09;5048990;28;20349;-53
2022/04/03 07:09:25;;;;;;;13.43;12.30;;;;;;;2.89;78.44;96691.41;5043974;28;21450;-55
2022/04/03 07:11:51;;;;;;;13.73;12.53;;;;;;;2.89;78.55;96689.63;5044925;28;20249;-54
2022/04/03 07:14:18;;;;;;;14.23;12.93;;;;;;;2.89;77.55;96694.84;5044613;28;20211;-54
2022/04/03 07:16:44;;;;;;;14.17;12.87;;;;;;;3.32;77.41;96694.78;5045152;28;20530;-57
2022/04/03 07:19:11;;;;;;;13.60;12.33;;;;;;;3.49;74.63;96686.69;5043798;28;20643;-57
2022/04/03 07:21:37;;;;;;;14.00;12.70;;;;;;;3.43;75.56;96692.31;5043053;28;20230;-58
2022/04/03 07:24:06;;;;;;;13.20;12.00;;;;;;;3.48;73.95;96701.53;5043195;28;20551;-57
2022/04/03 07:26:33;;;;;;;14.50;13.23;;;;;;;3.38;74.94;96704.81;5043026;28;20242;-57
2022/04/03 07:28:59;;;;;;;13.70;12.40;;;;;;;3.13;74.91;96708.16;5043444;28;20211;-57
2022/04/03 07:31:28;;;;;;;13.03;11.93;;;;;;;3.12;76.48;96703.84;5043402;28;20209;-57
2022/04/03 07:33:55;;;;;;;12.80;11.60;;;;;;;3.04;76.54;96713.97;5044686;28;20203;-57
2022/04/03 07:36:22;;;;;;;12.80;11.70;;;;;;;2.97;77.95;96716.13;5044901;28;20199;-56
2022/04/03 07:38:48;;;;;;;13.37;12.27;;;;;;;2.85;77.18;96714.25;5044714;28;20226;-57
2022/04/03 07:41:16;;;;;;;12.60;11.50;;;;;;;2.81;75.51;96715.38;5042882;28;20654;-56
2022/04/03 07:43:43;;;;;;;13.30;12.20;;;;;;;2.73;78.20;96720.22;5042784;28;20201;-55
2022/04/03 07:46:12;;;;;;;13.47;12.30;;;;;;;2.72;77.70;96731.63;5043671;28;20204;-57
2022/04/03 07:48:38;;;;;;;13.07;11.97;;;;;;;2.35;77.75;96724.28;5059331;28;20217;-55
2022/04/03 07:51:05;;;;;;;13.23;12.00;;;;;;;2.38;78.61;96724.09;5067561;28;20211;-56
2022/04/03 07:53:31;;;;;;;12.53;11.43;;;;;;;2.58;78.16;96730.75;5058042;28;21156;-56
2022/04/03 07:55:58;;;;;;;13.97;12.10;;;;;;;2.45;77.22;96733.25;5044819;28;20212;-54
2022/04/03 07:58:26;;;;;;;13.33;12.03;;;;;;;2.49;77.99;96734.75;5043998;28;20219;-56
2022/04/03 08:00:52;;;;;;;12.70;11.60;;;;;;;2.56;77.07;96725.63;5044374;28;20209;-55
2022/04/03 08:03:18;;;;;;;13.47;12.07;;;;;;;2.59;78.55;96724.63;5045230;28;20210;-57
2022/04/03 08:05:45;;;;;;;13.00;11.80;;;;;;;2.84;76.43;96732.63;5044887;28;20732;-56
2022/04/03 08:08:12;;;;;;;13.40;12.17;;;;;;;2.92;75.95;96728.63;5043592;28;20241;-55
2022/04/03 08:10:38;;;;;;;13.07;11.90;;;;;;;3.07;75.89;96731.22;5050389;28;20199;-56
2022/04/03 08:13:05;;;;;;;13.23;12.10;;;;;;;3.12;74.64;96735.19;5070075;28;20199;-59
2022/04/03 08:15:33;;;;;;;12.40;11.33;;;;;;;3.37;74.53;96734.50;5065628;28;20210;-56
2022/04/03 08:17:59;;;;;;;12.50;11.23;;;;;;;3.27;74.19;96746.47;5056108;28;20207;-56
2022/04/03 08:20:26;;;;;;;12.50;11.47;;;;;;;3.31;72.21;96738.34;5045765;28;20214;-58
2022/04/03 08:22:52;;;;;;;10.73;9.73;;;;;;;3.42;73.51;96741.13;5043455;28;20276;-58
2022/04/03 08:25:19;;;;;;;11.67;10.27;;;;;;;3.64;71.71;96738.00;5040071;28;20549;-58
2022/04/03 08:27:47;;;;;;;11.33;10.33;;;;;;;3.72;69.71;96740.94;5042631;28;20229;-57
2022/04/03 08:30:16;;;;;;;10.77;9.87;;;;;;;3.97;71.09;96753.25;5041714;28;20599;-58
2022/04/03 08:32:44;;;;;;;10.50;9.60;;;;;;;4.24;70.40;96750.63;5043446;28;20543;-57
2022/04/03 08:35:14;;;;;;;10.20;9.30;;;;;;;4.39;67.54;96753.03;5043909;28;20204;-58
2022/04/03 08:37:41;;;;;;;9.43;8.63;;;;;;;4.31;65.03;96754.50;5042931;28;20199;-58
2022/04/03 08:40:09;;;;;;;9.80;8.97;;;;;;;4.65;64.76;96758.31;5043860;28;20206;-58
2022/04/03 08:42:36;;;;;;;9.23;8.53;;;;;;;4.67;66.83;96756.44;5042316;28;20195;-57
2022/04/03 08:45:04;;;;;;;9.40;8.70;;;;;;;4.28;66.13;96755.56;5043139;28;20588;-58
2022/04/03 08:47:30;;;;;;;9.87;8.97;;;;;;;3.93;66.02;96757.84;5044100;28;20231;-58
2022/04/03 08:50:01;;;;;;;9.57;8.80;;;;;;;4.10;67.61;96758.53;5042335;28;20315;-55
2022/04/03 08:52:28;;;;;;;9.60;8.73;;;;;;;4.03;66.96;96754.66;5043604;28;20207;-57
2022/04/03 08:54:55;;;;;;;9.97;9.10;;;;;;;4.34;68.49;96755.13;5041785;28;20578;-56
2022/04/03 08:57:23;;;;;;;10.10;9.20;;;;;;;4.36;66.19;96757.63;5042502;28;20234;-58
2022/04/03 08:59:51;;;;;;;9.40;8.63;;;;;;;4.50;66.80;96760.16;5042889;28;20208;-57
2022/04/03 09:02:18;;;;;;;10.37;9.43;;;;;;;4.79;67.87;96756.44;5043037;28;20631;-56
2022/04/03 09:04:44;;;;;;;9.37;8.57;;;;;;;5.32;64.58;96755.31;5044343;28;20226;-54
2022/04/03 09:07:17;;;;;;;9.03;8.23;;;;;;;5.50;64.20;96755.78;5044034;28;20223;-57
2022/04/03 09:09:43;;;;;;;9.67;8.80;;;;;;;5.63;63.62;96745.28;5044874;28;20195;-56
2022/04/03 09:12:12;;;;;;;8.60;7.90;;;;;;;6.08;64.78;96754.25;5043391;28;20219;-57
2022/04/03 09:14:45;;;;;;;9.10;8.40;;;;;;;6.38;60.65;96746.69;5044530;28;20218;-56
2022/04/03 09:17:12;;;;;;;8.87;8.17;;;;;;;5.92;60.17;96744.84;5042991;28;20636;-56
2022/04/03 09:19:38;;;;;;;8.70;8.03;;;;;;;5.98;60.97;96748.84;5043376;28;20273;-56
2022/04/03 09:22:05;;;;;;;9.30;8.60;;;;;;;5.74;60.53;96746.16;5043731;28;20203;-56
2022/04/03 09:24:36;;;;;;;8.90;8.20;;;;;;;5.62;59.49;96744.44;5043287;28;20203;-56
2022/04/03 09:27:04;;;;;;;8.10;7.50;;;;;;;5.24;61.47;96749.78;5043121;28;20232;-58
2022/04/03 09:29:30;;;;;;;8.30;7.50;;;;;;;5.25;62.40;96759.31;5064464;28;20195;-60
2022/04/03 09:32:01;;;;;;;7.60;7.00;;;;;;;4.72;60.57;96749.94;5044449;28;20219;-59
2022/04/03 09:34:30;;;;;;;7.83;7.23;;;;;;;4.56;61.90;96757.16;5042347;28;20307;-59
2022/04/03 09:36:57;;;;;;;9.23;8.33;;;;;;;4.33;62.29;96755.22;5043308;28;20238;-59
2022/04/03 09:39:26;;;;;;;8.03;7.33;;;;;;;4.30;61.92;96747.59;5046686;28;20199;-60
2022/04/03 09:42:00;;;;;;;7.97;7.30;;;;;;;4.40;64.01;96744.25;5046594;28;20451;-59
2022/04/03 09:44:31;;;;;;;8.20;7.50;;;;;;;4.55;63.55;96746.78;5048170;28;20236;-59
2022/04/03 09:47:12;;;;;;;9.20;8.30;;;;;;;4.50;64.12;96758.41;5047854;28;20215;-60
2022/04/03 09:49:39;;;;;;;7.90;7.30;;;;;;;4.58;64.47;96752.66;5046854;28;20227;-59
2022/04/03 09:52:06;;;;;;;8.77;8.00;;;;;;;4.86;65.36;96751.59;5046353;28;20195;-58
2022/04/03 09:54:33;;;;;;;9.20;8.30;;;;;;;4.80;63.47;96752.88;5046910;28;20223;-59
2022/04/03 09:57:23;;;;;;;9.07;8.27;;;;;;;4.68;62.84;96755.47;5046539;28;20232;-59
2022/04/03 09:59:51;;;;;;;8.77;7.97;;;;;;;4.69;62.69;96762.41;5047219;28;20198;-59
2022/04/03 10:02:18;;;;;;;8.10;7.43;;;;;;;4.37;61.21;96744.47;5045681;28;20195;-58
2022/04/03 10:04:46;;;;;;;8.00;7.30;;;;;;;4.64;61.47;96746.97;5047147;28;20203;-59
2022/04/03 10:07:13;;;;;;;7.87;7.27;;;;;;;4.94;62.50;96739.66;5046728;28;20217;-59
2022/04/03 10:09:44;;;;;;;7.60;7.00;;;;;;;4.79;60.42;96751.19;5046932;28;20258;-58
2022/04/03 10:12:11;;;;;;;7.53;6.93;;;;;;;4.47;58.35;96745.50;5046898;28;20234;-58
2022/04/03 10:14:40;;;;;;;7.00;6.40;;;;;;;4.61;60.99;96747.19;5044997;28;20680;-59
2022/04/03 10:17:06;;;;;;;7.00;6.50;;;;;;;4.64;60.71;96741.75;5045723;28;20230;-60
2022/04/03 10:19:33;;;;;;;7.43;6.77;;;;;;;4.80;63.62;96741.53;5045127;28;20218;-58
2022/04/03 10:22:01;;;;;;;7.60;6.90;;;;;;;4.58;59.98;96747.41;5045094;28;20211;-59
2022/04/03 10:24:29;;;;;;;7.17;6.50;;;;;;;4.74;64.19;96740.19;5045664;28;20195;-60
2022/04/03 10:26:59;;;;;;;8.13;6.80;;;;;;;4.86;62.33;96741.97;5044692;28;20299;-60
2022/04/03 10:29:26;;;;;;;7.67;7.07;;;;;;;4.69;60.20;96741.44;5046269;28;20220;-60
2022/04/03 10:31:58;;;;;;;7.53;6.93;;;;;;;4.77;59.98;96742.59;5046115;28;20210;-59
2022/04/03 10:34:29;;;;;;;7.47;6.87;;;;;;;5.04;59.18;96745.09;5047466;28;20235;-58
2022/04/03 10:36:55;;;;;;;7.63;6.93;;;;;;;5.65;57.83;96735.50;5049546;28;20204;-60
2022/04/03 10:39:24;;;;;;;6.63;6.13;;;;;;;5.68;56.09;96733.50;5046100;28;20209;-60
2022/04/03 10:41:51;;;;;;;7.10;6.50;;;;;;;5.92;58.32;96730.91;5059949;28;20245;-58
2022/04/03 10:44:19;;;;;;;7.23;6.73;;;;;;;7.01;58.37;96736.53;5046150;28;20525;-58
2022/04/03 10:47:20;;;;;;;7.90;7.20;;;;;;;7.26;56.07;96734.66;5045720;28;20226;-59
2022/04/03 10:50:00;;;;;;;6.73;6.13;;;;;;;6.52;51.11;96743.88;5044937;28;20218;-60
2022/04/03 10:52:33;;;;;;;6.47;5.97;;;;;;;6.40;52.76;96756.16;5044163;28;20199;-60
2022/04/03 10:55:02;;;;;;;6.30;5.80;;;;;;;6.20;53.67;96746.28;5043689;28;20278;-60
2022/04/03 10:57:32;;;;;;;6.57;5.97;;;;;;;5.89;53.66;96754.75;5043169;28;20191;-58
2022/04/03 11:00:38;;;;;;;6.80;6.30;;;;;;;5.48;54.41;96760.31;5043768;28;20250;-58
2022/04/03 11:03:33;;;;;;;7.40;6.07;;;;;;;5.39;55.71;96760.97;5037622;28;20617;-58
2022/04/03 11:06:18;;;;;;;6.57;5.97;;;;;;;6.22;54.75;96747.03;5043518;28;20220;-59
2022/04/03 11:08:55;;;;;;;6.83;6.23;;;;;;;6.75;54.34;96753.50;5042967;28;20219;-57
2022/04/03 11:11:31;;;;;;;6.83;6.33;;;;;;;7.16;52.30;96754.72;5043370;28;20207;-60
2022/04/03 11:13:58;;;;;;;6.60;6.10;;;;;;;6.90;49.25;96744.44;5042932;28;20612;-57
2022/04/03 11:16:28;;;;;;;6.60;6.10;;;;;;;6.77;50.99;96754.19;5043634;28;20616;-59
2022/04/03 11:19:03;;;;;;;5.87;5.47;;;;;;;6.29;50.04;96750.03;5043143;28;20192;-59
2022/04/03 11:21:32;;;;;;;7.07;6.57;;;;;;;6.20;53.67;96742.84;5043432;28;20530;-59
2022/04/03 11:24:04;;;;;;;6.67;6.13;;;;;;;5.93;54.24;96751.78;5056736;28;20199;-61
2022/04/03 11:26:30;;;;;;;6.73;6.13;;;;;;;5.71;55.47;96749.00;5058946;28;20231;-59
2022/04/03 11:28:57;;;;;;;6.73;6.13;;;;;;;5.43;54.88;96749.31;5046477;28;20227;-64
2022/04/03 11:31:24;;;;;;;6.73;6.23;;;;;;;5.01;57.13;96753.16;5043473;28;20208;-62